sensor_id;sensor_type;location;lat;lon;timestamp;pressure;altitude;pressure_sealevel;temperature;humidity
64683;BME280;51107;47.652;19.016;2023-07-13T00:01:15;99672.84;;;22.86;83.10
64683;BME280;51107;47.652;19.016;2023-07-13T00:03:44;99675.78;;;22.61;86.05
64683;BME280;51107;47.652;19.016;2023-07-13T00:06:13;99667.34;;;22.17;85.20
64683;BME280;51107;47.652;19.016;2023-07-13T00:08:41;99673.81;;;22.21;82.36
64683;BME280;51107;47.652;19.016;2023-07-13T00:11:10;99671.19;;;21.79;83.76
64683;BME280;51107;47.652;19.016;2023-07-13T00:13:39;99667.81;;;21.41;85.91
64683;BME280;51107;47.652;19.016;2023-07-13T00:16:08;99641.47;;;21.16;91.74
64683;BME280;51107;47.652;19.016;2023-07-13T00:18:37;99614.44;;;21.07;96.95
64683;BME280;51107;47.652;19.016;2023-07-13T00:21:06;99609.59;;;21.04;100.00
64683;BME280;51107;47.652;19.016;2023-07-13T00:23:36;99594.34;;;20.87;100.00
64683;BME280;51107;47.652;19.016;2023-07-13T00:26:06;99571.12;;;20.71;100.00
64683;BME280;51107;47.652;19.016;2023-07-13T00:28:35;99560.56;;;20.64;100.00
64683;BME280;51107;47.652;19.016;2023-07-13T00:31:03;99559.63;;;20.59;100.00
64683;BME280;51107;47.652;19.016;2023-07-13T00:33:35;99540.38;;;20.51;100.00
64683;BME280;51107;47.652;19.016;2023-07-13T00:36:04;99547.38;;;20.46;100.00
64683;BME280;51107;47.652;19.016;2023-07-13T00:38:32;99539.28;;;20.41;100.00
64683;BME280;51107;47.652;19.016;2023-07-13T00:41:02;99496.22;;;20.33;100.00
64683;BME280;51107;47.652;19.016;2023-07-13T00:43:31;99477.56;;;20.28;100.00
64683;BME280;51107;47.652;19.016;2023-07-13T00:46:36;99483.88;;;20.27;100.00
64683;BME280;51107;47.652;19.016;2023-07-13T00:49:06;99491.81;;;20.27;100.00
64683;BME280;51107;47.652;19.016;2023-07-13T00:51:43;99499.81;;;20.20;100.00
64683;BME280;51107;47.652;19.016;2023-07-13T00:54:16;99505.09;;;20.02;100.00
64683;BME280;51107;47.652;19.016;2023-07-13T00:56:49;99502.34;;;19.90;100.00
64683;BME280;51107;47.652;19.016;2023-07-13T00:59:20;99502.34;;;19.90;100.00
64683;BME280;51107;47.652;19.016;2023-07-13T01:01:49;99492.53;;;19.97;100.00
64683;BME280;51107;47.652;19.016;2023-07-13T01:04:18;99502.75;;;19.94;100.00
64683;BME280;51107;47.652;19.016;2023-07-13T01:06:46;99484.69;;;19.91;100.00
64683;BME280;51107;47.652;19.016;2023-07-13T01:09:16;99481.00;;;19.92;100.00
64683;BME280;51107;47.652;19.016;2023-07-13T01:11:44;99497.06;;;19.90;100.00
64683;BME280;51107;47.652;19.016;2023-07-13T01:14:13;99508.47;;;19.91;100.00
64683;BME280;51107;47.652;19.016;2023-07-13T01:16:46;99505.28;;;19.82;100.00
64683;BME280;51107;47.652;19.016;2023-07-13T01:21:52;99503.56;;;19.69;100.00
64683;BME280;51107;47.652;19.016;2023-07-13T01:24:21;99492.91;;;19.82;100.00
64683;BME280;51107;47.652;19.016;2023-07-13T01:26:50;99482.09;;;19.84;100.00
64683;BME280;51107;47.652;19.016;2023-07-13T01:29:18;99476.81;;;19.84;100.00
64683;BME280;51107;47.652;19.016;2023-07-13T01:31:46;99477.63;;;19.78;100.00
64683;BME280;51107;47.652;19.016;2023-07-13T01:34:15;99476.91;;;19.71;100.00
64683;BME280;51107;47.652;19.016;2023-07-13T01:36:44;99487.47;;;19.71;100.00
64683;BME280;51107;47.652;19.016;2023-07-13T01:39:12;99480.56;;;19.69;100.00
64683;BME280;51107;47.652;19.016;2023-07-13T01:41:40;99477.56;;;19.66;100.00
64683;BME280;51107;47.652;19.016;2023-07-13T01:44:09;99486.00;;;19.56;100.00
64683;BME280;51107;47.652;19.016;2023-07-13T01:46:37;99480.78;;;19.68;100.00
64683;BME280;51107;47.652;19.016;2023-07-13T01:49:06;99487.69;;;19.69;100.00
64683;BME280;51107;47.652;19.016;2023-07-13T01:51:34;99488.06;;;19.73;100.00
64683;BME280;51107;47.652;19.016;2023-07-13T01:54:02;99491.63;;;19.60;100.00
64683;BME280;51107;47.652;19.016;2023-07-13T01:56:30;99493.03;;;19.62;100.00
64683;BME280;51107;47.652;19.016;2023-07-13T01:58:59;99492.59;;;19.65;100.00
64683;BME280;51107;47.652;19.016;2023-07-13T02:01:27;99490.78;;;19.66;100.00
64683;BME280;51107;47.652;19.016;2023-07-13T02:03:56;99477.72;;;19.46;100.00
64683;BME280;51107;47.652;19.016;2023-07-13T02:06:24;99485.53;;;19.59;100.00
64683;BME280;51107;47.652;19.016;2023-07-13T02:08:53;99479.25;;;19.60;100.00
64683;BME280;51107;47.652;19.016;2023-07-13T02:11:22;99475.78;;;19.60;100.00
64683;BME280;51107;47.652;19.016;2023-07-13T02:13:50;99471.84;;;19.69;100.00
64683;BME280;51107;47.652;19.016;2023-07-13T02:16:19;99487.47;;;19.71;100.00
64683;BME280;51107;47.652;19.016;2023-07-13T02:18:47;99490.50;;;19.74;100.00
64683;BME280;51107;47.652;19.016;2023-07-13T02:21:16;99489.31;;;19.70;100.00
64683;BME280;51107;47.652;19.016;2023-07-13T02:23:45;99478.13;;;19.68;100.00
64683;BME280;51107;47.652;19.016;2023-07-13T02:26:13;99479.97;;;19.67;100.00
64683;BME280;51107;47.652;19.016;2023-07-13T02:28:41;99480.25;;;19.59;100.00
64683;BME280;51107;47.652;19.016;2023-07-13T02:31:13;99482.69;;;19.61;100.00
64683;BME280;51107;47.652;19.016;2023-07-13T02:33:42;99477.78;;;19.64;100.00
64683;BME280;51107;47.652;19.016;2023-07-13T02:36:12;99478.53;;;19.72;100.00
64683;BME280;51107;47.652;19.016;2023-07-13T02:38:42;99472.78;;;19.75;100.00
64683;BME280;51107;47.652;19.016;2023-07-13T02:41:10;99494.53;;;19.77;100.00
64683;BME280;51107;47.652;19.016;2023-07-13T02:43:39;99489.09;;;19.72;100.00
64683;BME280;51107;47.652;19.016;2023-07-13T02:46:09;99483.06;;;19.64;100.00
64683;BME280;51107;47.652;19.016;2023-07-13T02:48:39;99473.25;;;19.72;100.00
64683;BME280;51107;47.652;19.016;2023-07-13T02:51:07;99483.56;;;19.80;100.00
64683;BME280;51107;47.652;19.016;2023-07-13T02:53:36;99499.88;;;19.70;100.00
64683;BME280;51107;47.652;19.016;2023-07-13T02:56:05;99491.50;;;19.55;100.00
64683;BME280;51107;47.652;19.016;2023-07-13T02:58:35;99486.94;;;19.62;100.00
64683;BME280;51107;47.652;19.016;2023-07-13T03:01:09;99494.06;;;19.61;100.00
64683;BME280;51107;47.652;19.016;2023-07-13T03:03:38;99487.75;;;19.62;100.00
64683;BME280;51107;47.652;19.016;2023-07-13T03:06:07;99486.00;;;19.56;100.00
64683;BME280;51107;47.652;19.016;2023-07-13T03:08:37;99501.84;;;19.56;100.00
64683;BME280;51107;47.652;19.016;2023-07-13T03:22:17;99512.91;;;20.15;100.00
64683;BME280;51107;47.652;19.016;2023-07-13T03:24:46;99512.91;;;20.15;100.00
64683;BME280;51107;47.652;19.016;2023-07-13T03:27:16;99515.91;;;19.75;100.00
64683;BME280;51107;47.652;19.016;2023-07-13T03:29:45;99503.06;;;19.79;100.00
64683;BME280;51107;47.652;19.016;2023-07-13T03:32:14;99493.84;;;19.88;100.00
64683;BME280;51107;47.652;19.016;2023-07-13T03:34:43;99485.47;;;19.91;100.00
64683;BME280;51107;47.652;19.016;2023-07-13T03:37:11;99495.09;;;19.85;100.00
64683;BME280;51107;47.652;19.016;2023-07-13T03:39:39;99501.03;;;19.81;100.00
64683;BME280;51107;47.652;19.016;2023-07-13T03:42:08;99506.63;;;19.66;100.00
64683;BME280;51107;47.652;19.016;2023-07-13T03:44:36;99500.25;;;19.74;100.00
64683;BME280;51107;47.652;19.016;2023-07-13T03:47:04;99503.59;;;19.88;100.00
64683;BME280;51107;47.652;19.016;2023-07-13T03:49:34;99520.56;;;19.80;100.00
64683;BME280;51107;47.652;19.016;2023-07-13T03:52:03;99508.53;;;19.84;100.00
64683;BME280;51107;47.652;19.016;2023-07-13T03:54:31;99512.56;;;19.87;100.00
64683;BME280;51107;47.652;19.016;2023-07-13T03:57:01;99521.47;;;19.92;100.00
64683;BME280;51107;47.652;19.016;2023-07-13T03:59:30;99525.62;;;19.81;100.00
64683;BME280;51107;47.652;19.016;2023-07-13T04:01:58;99515.53;;;19.72;100.00
64683;BME280;51107;47.652;19.016;2023-07-13T04:04:27;99514.41;;;19.86;100.00
64683;BME280;51107;47.652;19.016;2023-07-13T04:06:55;99529.41;;;19.92;100.00
64683;BME280;51107;47.652;19.016;2023-07-13T04:09:24;99528.50;;;19.98;100.00
64683;BME280;51107;47.652;19.016;2023-07-13T04:11:53;99530.22;;;20.11;100.00
64683;BME280;51107;47.652;19.016;2023-07-13T04:14:21;99535.06;;;20.14;100.00
64683;BME280;51107;47.652;19.016;2023-07-13T04:16:49;99544.41;;;20.17;100.00
64683;BME280;51107;47.652;19.016;2023-07-13T04:19:18;99554.25;;;20.10;100.00
64683;BME280;51107;47.652;19.016;2023-07-13T04:21:46;99565.56;;;20.17;100.00
64683;BME280;51107;47.652;19.016;2023-07-13T04:24:15;99562.94;;;20.17;100.00
64683;BME280;51107;47.652;19.016;2023-07-13T04:26:43;99574.91;;;20.19;100.00
64683;BME280;51107;47.652;19.016;2023-07-13T04:29:11;99587.97;;;20.14;100.00
64683;BME280;51107;47.652;19.016;2023-07-13T04:31:40;99591.97;;;20.24;100.00
64683;BME280;51107;47.652;19.016;2023-07-13T04:34:08;99597.87;;;20.19;100.00
64683;BME280;51107;47.652;19.016;2023-07-13T04:36:36;99595.84;;;20.21;100.00
64683;BME280;51107;47.652;19.016;2023-07-13T04:39:05;99598.31;;;20.16;100.00
64683;BME280;51107;47.652;19.016;2023-07-13T04:41:35;99605.59;;;20.20;100.00
64683;BME280;51107;47.652;19.016;2023-07-13T04:44:03;99604.78;;;20.20;100.00
64683;BME280;51107;47.652;19.016;2023-07-13T04:46:31;99611.78;;;20.14;100.00
64683;BME280;51107;47.652;19.016;2023-07-13T04:49:00;99615.97;;;20.22;100.00
64683;BME280;51107;47.652;19.016;2023-07-13T04:51:28;99624.94;;;20.21;100.00
64683;BME280;51107;47.652;19.016;2023-07-13T04:53:56;99634.84;;;20.26;100.00
64683;BME280;51107;47.652;19.016;2023-07-13T04:56:29;99638.00;;;20.16;100.00
64683;BME280;51107;47.652;19.016;2023-07-13T04:58:58;99649.59;;;20.15;100.00
64683;BME280;51107;47.652;19.016;2023-07-13T05:01:26;99660.78;;;20.17;100.00
64683;BME280;51107;47.652;19.016;2023-07-13T05:03:55;99670.97;;;20.13;100.00
64683;BME280;51107;47.652;19.016;2023-07-13T05:06:25;99694.97;;;20.12;100.00
64683;BME280;51107;47.652;19.016;2023-07-13T05:08:53;99719.28;;;20.27;100.00
64683;BME280;51107;47.652;19.016;2023-07-13T05:11:22;99737.16;;;20.32;100.00
64683;BME280;51107;47.652;19.016;2023-07-13T05:13:50;99758.63;;;20.17;100.00
64683;BME280;51107;47.652;19.016;2023-07-13T05:16:19;99778.28;;;20.28;100.00
64683;BME280;51107;47.652;19.016;2023-07-13T05:18:47;99794.38;;;20.26;100.00
64683;BME280;51107;47.652;19.016;2023-07-13T05:21:15;99807.25;;;20.16;100.00
64683;BME280;51107;47.652;19.016;2023-07-13T05:23:44;99808.06;;;20.16;100.00
64683;BME280;51107;47.652;19.016;2023-07-13T05:26:12;99816.31;;;19.95;100.00
64683;BME280;51107;47.652;19.016;2023-07-13T05:28:40;99809.81;;;19.97;100.00
64683;BME280;51107;47.652;19.016;2023-07-13T05:31:10;99801.72;;;19.79;100.00
64683;BME280;51107;47.652;19.016;2023-07-13T05:33:40;99797.28;;;19.73;100.00
64683;BME280;51107;47.652;19.016;2023-07-13T05:36:08;99796.88;;;19.69;100.00
64683;BME280;51107;47.652;19.016;2023-07-13T05:38:36;99796.88;;;19.69;100.00
64683;BME280;51107;47.652;19.016;2023-07-13T05:41:05;99804.22;;;19.67;100.00
64683;BME280;51107;47.652;19.016;2023-07-13T05:43:33;99812.56;;;19.57;100.00
64683;BME280;51107;47.652;19.016;2023-07-13T05:46:02;99815.44;;;19.49;100.00
64683;BME280;51107;47.652;19.016;2023-07-13T05:48:30;99813.28;;;19.26;100.00
64683;BME280;51107;47.652;19.016;2023-07-13T05:50:58;99808.00;;;19.26;100.00
64683;BME280;51107;47.652;19.016;2023-07-13T05:53:27;99810.66;;;19.26;100.00
64683;BME280;51107;47.652;19.016;2023-07-13T05:55:55;99805.19;;;19.07;100.00
64683;BME280;51107;47.652;19.016;2023-07-13T05:58:26;99793.41;;;18.96;100.00
64683;BME280;51107;47.652;19.016;2023-07-13T06:01:10;99781.84;;;18.91;100.00
64683;BME280;51107;47.652;19.016;2023-07-13T06:03:40;99761.94;;;18.88;100.00
64683;BME280;51107;47.652;19.016;2023-07-13T06:06:09;99756.06;;;18.73;100.00
64683;BME280;51107;47.652;19.016;2023-07-13T06:08:38;99756.06;;;18.59;100.00
64683;BME280;51107;47.652;19.016;2023-07-13T06:11:18;99763.38;;;18.64;100.00
64683;BME280;51107;47.652;19.016;2023-07-13T06:13:46;99762.56;;;18.63;100.00
64683;BME280;51107;47.652;19.016;2023-07-13T06:16:16;99745.31;;;18.54;100.00
64683;BME280;51107;47.652;19.016;2023-07-13T06:18:45;99714.69;;;18.53;100.00
64683;BME280;51107;47.652;19.016;2023-07-13T06:21:21;99691.53;;;18.55;100.00
64683;BME280;51107;47.652;19.016;2023-07-13T06:23:51;99630.69;;;18.43;100.00
64683;BME280;51107;47.652;19.016;2023-07-13T06:26:20;99581.78;;;18.54;100.00
64683;BME280;51107;47.652;19.016;2023-07-13T06:28:49;99467.53;;;18.47;100.00
64683;BME280;51107;47.652;19.016;2023-07-13T06:31:17;99292.53;;;18.34;100.00
64683;BME280;51107;47.652;19.016;2023-07-13T06:33:46;99310.50;;;18.51;100.00
64683;BME280;51107;47.652;19.016;2023-07-13T06:36:14;99278.97;;;18.38;100.00
64683;BME280;51107;47.652;19.016;2023-07-13T06:38:42;99329.22;;;18.43;100.00
64683;BME280;51107;47.652;19.016;2023-07-13T06:41:11;99310.81;;;18.36;100.00
64683;BME280;51107;47.652;19.016;2023-07-13T06:43:39;99325.81;;;18.36;100.00
64683;BME280;51107;47.652;19.016;2023-07-13T06:46:08;99313.81;;;18.40;100.00
64683;BME280;51107;47.652;19.016;2023-07-13T06:48:37;99284.13;;;18.51;100.00
64683;BME280;51107;47.652;19.016;2023-07-13T06:51:05;99023.47;;;16.96;100.00
64683;BME280;51107;47.652;19.016;2023-07-13T06:53:34;99317.22;;;18.79;100.00
64683;BME280;51107;47.652;19.016;2023-07-13T06:56:02;99328.06;;;18.96;100.00
64683;BME280;51107;47.652;19.016;2023-07-13T06:58:31;99358.06;;;19.20;100.00
64683;BME280;51107;47.652;19.016;2023-07-13T07:01:00;99394.84;;;19.22;100.00
64683;BME280;51107;47.652;19.016;2023-07-13T07:03:28;99406.31;;;19.34;100.00
64683;BME280;51107;47.652;19.016;2023-07-13T07:06:31;99408.31;;;19.57;100.00
64683;BME280;51107;47.652;19.016;2023-07-13T07:09:00;99426.41;;;19.79;100.00
64683;BME280;51107;47.652;19.016;2023-07-13T07:11:28;99512.94;;;19.90;100.00
64683;BME280;51107;47.652;19.016;2023-07-13T07:13:56;99545.16;;;20.06;100.00
64683;BME280;51107;47.652;19.016;2023-07-13T07:16:25;99529.59;;;20.34;100.00
64683;BME280;51107;47.652;19.016;2023-07-13T07:18:54;99551.56;;;20.35;100.00
64683;BME280;51107;47.652;19.016;2023-07-13T07:21:22;99555.22;;;20.34;100.00
64683;BME280;51107;47.652;19.016;2023-07-13T07:23:52;99553.97;;;20.36;100.00
64683;BME280;51107;47.652;19.016;2023-07-13T07:26:20;99541.41;;;20.50;100.00
64683;BME280;51107;47.652;19.016;2023-07-13T07:28:53;99548.31;;;20.70;100.00
64683;BME280;51107;47.652;19.016;2023-07-13T07:31:43;99557.19;;;20.76;100.00
64683;BME280;51107;47.652;19.016;2023-07-13T07:34:14;99574.03;;;20.63;100.00
64683;BME280;51107;47.652;19.016;2023-07-13T07:36:42;99593.22;;;20.58;100.00
64683;BME280;51107;47.652;19.016;2023-07-13T07:39:14;99595.38;;;20.68;100.00
64683;BME280;51107;47.652;19.016;2023-07-13T07:41:42;99600.44;;;20.69;100.00
64683;BME280;51107;47.652;19.016;2023-07-13T07:44:24;99594.53;;;20.67;100.00
64683;BME280;51107;47.652;19.016;2023-07-13T07:46:53;99608.31;;;20.76;100.00
64683;BME280;51107;47.652;19.016;2023-07-13T07:49:22;99606.00;;;20.98;100.00
64683;BME280;51107;47.652;19.016;2023-07-13T07:51:50;99614.75;;;21.17;100.00
64683;BME280;51107;47.652;19.016;2023-07-13T07:54:19;99621.22;;;21.33;100.00
64683;BME280;51107;47.652;19.016;2023-07-13T07:56:57;99619.66;;;21.44;100.00
64683;BME280;51107;47.652;19.016;2023-07-13T07:59:28;99629.88;;;21.59;100.00
64683;BME280;51107;47.652;19.016;2023-07-13T08:02:16;99629.56;;;21.67;100.00
64683;BME280;51107;47.652;19.016;2023-07-13T08:05:05;99630.31;;;22.10;100.00
64683;BME280;51107;47.652;19.016;2023-07-13T08:07:37;99630.31;;;22.58;100.00
64683;BME280;51107;47.652;19.016;2023-07-13T08:10:07;99622.13;;;23.00;100.00
64683;BME280;51107;47.652;19.016;2023-07-13T08:12:39;99620.31;;;23.29;100.00
64683;BME280;51107;47.652;19.016;2023-07-13T08:15:14;99626.50;;;23.64;100.00
64683;BME280;51107;47.652;19.016;2023-07-13T08:17:43;99628.44;;;23.85;96.48
64683;BME280;51107;47.652;19.016;2023-07-13T08:20:13;99617.50;;;23.99;99.47
64683;BME280;51107;47.652;19.016;2023-07-13T08:22:41;99617.88;;;24.24;93.10
64683;BME280;51107;47.652;19.016;2023-07-13T08:25:10;99609.16;;;24.29;90.03
64683;BME280;51107;47.652;19.016;2023-07-13T08:27:38;99606.25;;;24.31;84.23
64683;BME280;51107;47.652;19.016;2023-07-13T08:30:07;99614.16;;;24.25;84.03
64683;BME280;51107;47.652;19.016;2023-07-13T08:32:37;99624.09;;;24.52;85.75
64683;BME280;51107;47.652;19.016;2023-07-13T08:35:06;99619.75;;;24.63;84.79
64683;BME280;51107;47.652;19.016;2023-07-13T08:37:34;99611.91;;;25.01;90.33
64683;BME280;51107;47.652;19.016;2023-07-13T08:40:03;99611.38;;;25.26;85.56
64683;BME280;51107;47.652;19.016;2023-07-13T08:45:25;99618.31;;;25.87;82.82
64683;BME280;51107;47.652;19.016;2023-07-13T08:48:03;99614.63;;;26.31;84.49
64683;BME280;51107;47.652;19.016;2023-07-13T08:50:35;99615.72;;;26.30;81.77
64683;BME280;51107;47.652;19.016;2023-07-13T08:53:43;99624.22;;;26.26;76.39
64683;BME280;51107;47.652;19.016;2023-07-13T08:56:20;99614.28;;;26.17;73.22
64683;BME280;51107;47.652;19.016;2023-07-13T08:58:54;99624.91;;;26.11;74.68
64683;BME280;51107;47.652;19.016;2023-07-13T09:01:32;99627.37;;;26.18;76.62
64683;BME280;51107;47.652;19.016;2023-07-13T09:04:09;99634.84;;;26.16;73.93
64683;BME280;51107;47.652;19.016;2023-07-13T09:06:59;99637.56;;;26.21;74.85
64683;BME280;51107;47.652;19.016;2023-07-13T09:14:58;99646.56;;;26.58;74.23
64683;BME280;51107;47.652;19.016;2023-07-13T09:17:40;99645.22;;;26.60;70.57
64683;BME280;51107;47.652;19.016;2023-07-13T09:20:21;99638.03;;;26.66;72.11
64683;BME280;51107;47.652;19.016;2023-07-13T09:22:52;99648.31;;;26.85;72.10
64683;BME280;51107;47.652;19.016;2023-07-13T09:25:36;99639.56;;;27.10;74.55
64683;BME280;51107;47.652;19.016;2023-07-13T09:28:16;99646.81;;;27.25;71.67
64683;BME280;51107;47.652;19.016;2023-07-13T09:30:58;99649.78;;;27.34;69.89
64683;BME280;51107;47.652;19.016;2023-07-13T09:33:29;99651.91;;;27.32;68.35
64683;BME280;51107;47.652;19.016;2023-07-13T09:35:59;99658.91;;;27.38;70.28
64683;BME280;51107;47.652;19.016;2023-07-13T09:38:29;99659.72;;;27.49;67.68
64683;BME280;51107;47.652;19.016;2023-07-13T09:41:18;99662.94;;;27.45;67.91
64683;BME280;51107;47.652;19.016;2023-07-13T09:46:38;99662.56;;;27.11;66.78
64683;BME280;51107;47.652;19.016;2023-07-13T09:49:09;99665.50;;;27.15;67.54
64683;BME280;51107;47.652;19.016;2023-07-13T09:51:41;99677.91;;;27.52;66.92
64683;BME280;51107;47.652;19.016;2023-07-13T09:54:18;99675.53;;;27.60;67.26
64683;BME280;51107;47.652;19.016;2023-07-13T09:56:47;99674.69;;;27.39;63.56
64683;BME280;51107;47.652;19.016;2023-07-13T09:59:23;99672.41;;;27.05;65.66
64683;BME280;51107;47.652;19.016;2023-07-13T10:01:52;99670.88;;;27.30;66.96
64683;BME280;51107;47.652;19.016;2023-07-13T10:04:29;99669.53;;;27.22;65.56
64683;BME280;51107;47.652;19.016;2023-07-13T10:07:06;99675.75;;;27.38;68.34
64683;BME280;51107;47.652;19.016;2023-07-13T10:09:56;99674.97;;;27.48;65.62
64683;BME280;51107;47.652;19.016;2023-07-13T10:12:25;99676.03;;;27.57;67.95
64683;BME280;51107;47.652;19.016;2023-07-13T10:14:58;99679.00;;;27.66;64.70
64683;BME280;51107;47.652;19.016;2023-07-13T10:17:48;99670.44;;;27.79;69.54
64683;BME280;51107;47.652;19.016;2023-07-13T10:20:18;99666.41;;;27.77;66.29
64683;BME280;51107;47.652;19.016;2023-07-13T10:23:11;99668.03;;;27.93;65.10
64683;BME280;51107;47.652;19.016;2023-07-13T10:25:45;99672.31;;;28.10;64.25
64683;BME280;51107;47.652;19.016;2023-07-13T10:28:28;99670.16;;;27.81;60.82
64683;BME280;51107;47.652;19.016;2023-07-13T10:31:01;99674.19;;;27.73;63.07
64683;BME280;51107;47.652;19.016;2023-07-13T10:33:31;99671.78;;;27.92;65.18
64683;BME280;51107;47.652;19.016;2023-07-13T10:39:28;99688.09;;;27.80;62.03
64683;BME280;51107;47.652;19.016;2023-07-13T10:42:00;99689.72;;;27.92;61.59
64683;BME280;51107;47.652;19.016;2023-07-13T10:44:32;99675.28;;;27.98;65.75
64683;BME280;51107;47.652;19.016;2023-07-13T10:47:03;99673.66;;;27.87;66.00
64683;BME280;51107;47.652;19.016;2023-07-13T10:49:36;99670.69;;;27.93;66.56
64683;BME280;51107;47.652;19.016;2023-07-13T10:52:05;99679.28;;;27.75;63.47
64683;BME280;51107;47.652;19.016;2023-07-13T10:54:37;99691.03;;;27.74;63.73
64683;BME280;51107;47.652;19.016;2023-07-13T10:57:20;99677.94;;;27.83;64.04
64683;BME280;51107;47.652;19.016;2023-07-13T11:00:14;99671.50;;;27.89;60.87
64683;BME280;51107;47.652;19.016;2023-07-13T11:02:57;99680.59;;;27.88;64.47
64683;BME280;51107;47.652;19.016;2023-07-13T11:05:32;99682.22;;;27.99;60.79
64683;BME280;51107;47.652;19.016;2023-07-13T11:08:21;99678.47;;;27.90;59.56
64683;BME280;51107;47.652;19.016;2023-07-13T11:11:00;99675.25;;;27.88;61.29
64683;BME280;51107;47.652;19.016;2023-07-13T11:27:39;99660.53;;;27.95;58.02
64683;BME280;51107;47.652;19.016;2023-07-13T11:30:21;99661.88;;;27.98;60.23
64683;BME280;51107;47.652;19.016;2023-07-13T11:33:01;99660.53;;;28.06;57.62
64683;BME280;51107;47.652;19.016;2023-07-13T11:35:36;99676.34;;;28.12;58.61
64683;BME280;51107;47.652;19.016;2023-07-13T11:38:21;99683.56;;;27.96;58.31
64683;BME280;51107;47.652;19.016;2023-07-13T11:40:54;99669.38;;;27.91;60.74
64683;BME280;51107;47.652;19.016;2023-07-13T11:43:23;99676.62;;;28.01;62.28
64683;BME280;51107;47.652;19.016;2023-07-13T11:45:54;99686.78;;;28.14;58.69
64683;BME280;51107;47.652;19.016;2023-07-13T11:48:26;99669.12;;;28.08;57.31
64683;BME280;51107;47.652;19.016;2023-07-13T11:51:09;99659.75;;;28.00;59.76
64683;BME280;51107;47.652;19.016;2023-07-13T11:53:46;99658.41;;;28.03;58.64
64683;BME280;51107;47.652;19.016;2023-07-13T11:56:21;99668.84;;;28.04;57.70
64683;BME280;51107;47.652;19.016;2023-07-13T11:58:54;99664.84;;;28.02;58.65
64683;BME280;51107;47.652;19.016;2023-07-13T12:01:28;99663.47;;;27.63;58.13
64683;BME280;51107;47.652;19.016;2023-07-13T12:04:19;99659.47;;;27.91;58.23
64683;BME280;51107;47.652;19.016;2023-07-13T12:06:55;99653.31;;;27.86;58.42
64683;BME280;51107;47.652;19.016;2023-07-13T12:09:27;99660.00;;;27.93;58.76
64683;BME280;51107;47.652;19.016;2023-07-13T12:11:57;99653.06;;;27.92;59.88
64683;BME280;51107;47.652;19.016;2023-07-13T12:14:28;99655.19;;;27.80;57.31
64683;BME280;51107;47.652;19.016;2023-07-13T12:16:56;99651.97;;;27.83;60.23
64683;BME280;51107;47.652;19.016;2023-07-13T12:19:26;99642.87;;;27.89;57.61
64683;BME280;51107;47.652;19.016;2023-07-13T12:21:57;99658.16;;;27.78;60.03
64683;BME280;51107;47.652;19.016;2023-07-13T12:24:27;99657.31;;;27.93;60.68
64683;BME280;51107;47.652;19.016;2023-07-13T12:27:01;99652.25;;;27.97;57.16
64683;BME280;51107;47.652;19.016;2023-07-13T12:29:32;99661.34;;;27.91;60.18
64683;BME280;51107;47.652;19.016;2023-07-13T12:32:01;99645.81;;;27.93;59.29
64683;BME280;51107;47.652;19.016;2023-07-13T12:34:29;99648.50;;;27.88;57.95
64683;BME280;51107;47.652;19.016;2023-07-13T12:37:01;99653.84;;;27.98;57.99
64683;BME280;51107;47.652;19.016;2023-07-13T12:39:38;99651.97;;;27.93;57.40
64683;BME280;51107;47.652;19.016;2023-07-13T12:45:03;99652.25;;;27.87;56.60
64683;BME280;51107;47.652;19.016;2023-07-13T12:47:42;99647.97;;;27.91;55.90
64683;BME280;51107;47.652;19.016;2023-07-13T12:50:23;99634.84;;;27.84;58.47
64683;BME280;51107;47.652;19.016;2023-07-13T12:53:01;99638.88;;;27.82;57.55
64683;BME280;51107;47.652;19.016;2023-07-13T12:55:31;99630.31;;;27.69;57.53
64683;BME280;51107;47.652;19.016;2023-07-13T12:58:37;99628.69;;;27.73;56.94
64683;BME280;51107;47.652;19.016;2023-07-13T13:01:04;99620.94;;;27.87;56.77
64683;BME280;51107;47.652;19.016;2023-07-13T13:03:37;99626.28;;;27.82;58.10
64683;BME280;51107;47.652;19.016;2023-07-13T13:08:55;99637.81;;;27.77;59.86
64683;BME280;51107;47.652;19.016;2023-07-13T13:11:25;99634.03;;;27.89;57.87
64683;BME280;51107;47.652;19.016;2023-07-13T13:13:55;99634.31;;;27.82;57.14
64683;BME280;51107;47.652;19.016;2023-07-13T13:16:31;99635.13;;;27.83;57.43
64683;BME280;51107;47.652;19.016;2023-07-13T13:19:29;99633.78;;;27.90;55.69
64683;BME280;51107;47.652;19.016;2023-07-13T13:21:59;99627.63;;;27.85;55.92
64683;BME280;51107;47.652;19.016;2023-07-13T13:24:28;99628.97;;;27.72;58.16
64683;BME280;51107;47.652;19.016;2023-07-13T13:26:57;99628.44;;;27.80;58.11
64683;BME280;51107;47.652;19.016;2023-07-13T13:29:26;99615.31;;;27.73;57.67
64683;BME280;51107;47.652;19.016;2023-07-13T13:31:54;99609.94;;;27.84;58.01
64683;BME280;51107;47.652;19.016;2023-07-13T13:34:24;99616.91;;;27.79;59.30
64683;BME280;51107;47.652;19.016;2023-07-13T13:36:54;99617.44;;;27.97;56.28
64683;BME280;51107;47.652;19.016;2023-07-13T13:39:33;99618.81;;;28.05;56.28
64683;BME280;51107;47.652;19.016;2023-07-13T13:42:02;99622.53;;;28.04;56.27
64683;BME280;51107;47.652;19.016;2023-07-13T13:44:31;99619.03;;;27.93;56.54
64683;BME280;51107;47.652;19.016;2023-07-13T13:46:59;99610.75;;;27.89;54.81
64683;BME280;51107;47.652;19.016;2023-07-13T13:49:30;99607.78;;;27.96;55.11
64683;BME280;51107;47.652;19.016;2023-07-13T13:51:58;99597.09;;;28.06;54.07
64683;BME280;51107;47.652;19.016;2023-07-13T13:54:27;99607.78;;;27.96;54.66